Time;durP1;ratioP1;P1;durP2;ratioP2;P2;SDS_P1;SDS_P2;PMS_P1;PMS_P2;Temp;Humidity;BMP_temperature;BMP_pressure;BME280_temperature;BME280_humidity;BME280_pressure;Samples;Min_cycle;Max_cycle;Signal;HPM_P1;HPM_P2
2022/10/02 00:00:36;;;;;;;;;;;13.60;98.00;;;;;;5078753;28;19939;-81
2022/10/02 00:03:05;;;;;;;;;;;13.50;98.00;;;;;;5082639;28;19940;-82
2022/10/02 00:05:34;;;;;;;;;;;13.50;97.90;;;;;;5076535;28;19951;-82
2022/10/02 00:08:03;;;;;;;;;;;13.50;98.00;;;;;;5082587;28;19997;-81
2022/10/02 00:10:32;;;;;;;;;;;13.60;98.00;;;;;;5079721;28;20388;-82
2022/10/02 00:13:00;;;;;;;;;;;13.50;97.90;;;;;;5079800;28;19932;-82
2022/10/02 00:15:30;;;;;;;;;;;13.50;97.90;;;;;;5077437;28;19932;-83
2022/10/02 00:17:59;;;;;;;;;;;13.50;97.80;;;;;;5083128;28;19979;-83
2022/10/02 00:20:30;;;;;;;;;;;13.50;97.80;;;;;;5084049;28;19956;-83
2022/10/02 00:22:59;;;;;;;;;;;13.50;97.80;;;;;;5084522;28;20412;-83
2022/10/02 00:25:28;;;;;;;;;;;13.50;97.80;;;;;;5086130;28;19932;-81
2022/10/02 00:28:05;;;;;;;;;;;13.50;97.90;;;;;;5081805;28;20014;-84
2022/10/02 00:30:35;;;;;;;;;;;13.50;97.90;;;;;;5082558;28;19934;-82
2022/10/02 00:33:08;;;;;;;;;;;13.50;97.90;;;;;;5086040;28;19928;-82
2022/10/02 00:35:45;;;;;;;;;;;13.50;97.90;;;;;;5085077;28;19955;-83
2022/10/02 00:38:16;;;;;;;;;;;13.50;97.80;;;;;;5086057;28;19928;-83
2022/10/02 00:40:53;;;;;;;;;;;13.50;97.80;;;;;;5086689;28;19933;-82
2022/10/02 00:43:31;;;;;;;;;;;13.50;97.80;;;;;;5082963;28;20400;-83
2022/10/02 00:46:06;;;;;;;;;;;13.50;97.70;;;;;;5083505;28;19932;-83
2022/10/02 00:48:51;;;;;;;;;;;13.40;97.70;;;;;;5084843;28;19928;-83
2022/10/02 00:51:28;;;;;;;;;;;13.50;97.70;;;;;;5079714;28;19928;-83
2022/10/02 00:54:00;;;;;;;;;;;13.50;97.80;;;;;;5087482;28;19928;-82
2022/10/02 00:56:29;;;;;;;;;;;13.50;97.80;;;;;;5088785;28;19932;-84
2022/10/02 00:59:07;;;;;;;;;;;13.50;97.80;;;;;;5086733;28;20415;-82
2022/10/02 01:01:40;;;;;;;;;;;13.50;97.80;;;;;;5089075;28;19928;-83
2022/10/02 01:04:09;;;;;;;;;;;13.40;97.90;;;;;;5080691;28;20023;-83
2022/10/02 01:06:35;;;;;;;;;;;13.50;97.90;;;;;;5085666;28;20432;-81
2022/10/02 01:09:02;;;;;;;;;;;13.50;97.90;;;;;;5082603;28;19928;-83
2022/10/02 01:11:29;;;;;;;;;;;13.50;97.90;;;;;;5090398;28;20471;-82
2022/10/02 01:13:56;;;;;;;;;;;13.50;97.90;;;;;;5087597;28;19997;-82
2022/10/02 01:16:23;;;;;;;;;;;13.40;98.00;;;;;;5087451;28;19931;-82
2022/10/02 01:18:51;;;;;;;;;;;13.40;98.00;;;;;;5088613;28;19928;-81
2022/10/02 01:21:21;;;;;;;;;;;13.50;98.10;;;;;;5087062;28;20533;-81
2022/10/02 01:23:51;;;;;;;;;;;13.50;98.20;;;;;;5085245;28;19928;-82
2022/10/02 01:26:19;;;;;;;;;;;13.40;98.10;;;;;;5089246;28;19955;-84
2022/10/02 01:28:46;;;;;;;;;;;13.50;98.10;;;;;;5095307;28;19935;-81
2022/10/02 01:31:14;;;;;;;;;;;13.50;98.10;;;;;;5087093;28;19928;-80
2022/10/02 01:33:42;;;;;;;;;;;13.40;98.20;;;;;;5084083;28;19934;-83
2022/10/02 01:36:09;;;;;;;;;;;13.40;98.20;;;;;;5086999;28;19932;-82
2022/10/02 01:38:36;;;;;;;;;;;13.40;98.20;;;;;;5086015;28;19928;-82
2022/10/02 01:41:03;;;;;;;;;;;13.40;98.20;;;;;;5084577;28;19931;-84
2022/10/02 01:43:32;;;;;;;;;;;13.40;98.30;;;;;;5087314;28;19928;-84
2022/10/02 01:46:05;;;;;;;;;;;13.40;98.30;;;;;;5083748;28;19928;-83
2022/10/02 01:48:38;;;;;;;;;;;13.40;98.30;;;;;;5085795;28;19928;-83
2022/10/02 01:51:12;;;;;;;;;;;13.40;98.30;;;;;;5081952;28;20358;-84
2022/10/02 01:53:42;;;;;;;;;;;13.40;98.30;;;;;;5082908;28;20400;-83
2022/10/02 01:56:12;;;;;;;;;;;13.40;98.40;;;;;;5084871;28;19928;-83
2022/10/02 01:58:45;;;;;;;;;;;13.40;98.40;;;;;;5078591;28;19928;-82
2022/10/02 02:01:17;;;;;;;;;;;13.40;98.50;;;;;;5078876;28;19928;-80
2022/10/02 02:03:47;;;;;;;;;;;13.40;98.50;;;;;;5081040;28;19934;-80
2022/10/02 02:06:19;;;;;;;;;;;13.40;98.40;;;;;;5085248;28;19939;-81
2022/10/02 02:08:49;;;;;;;;;;;13.40;98.50;;;;;;5076883;28;19928;-80
2022/10/02 02:11:16;;;;;;;;;;;13.40;98.50;;;;;;5078315;28;19931;-81
2022/10/02 02:13:48;;;;;;;;;;;13.40;98.50;;;;;;5083813;28;19962;-81
2022/10/02 02:16:18;;;;;;;;;;;13.40;98.60;;;;;;5083656;28;19928;-81
2022/10/02 02:18:48;;;;;;;;;;;13.40;98.60;;;;;;5082414;28;20768;-81
2022/10/02 02:21:17;;;;;;;;;;;13.40;98.70;;;;;;5080036;28;20228;-81
2022/10/02 02:23:44;;;;;;;;;;;13.40;98.70;;;;;;5085295;28;20307;-80
2022/10/02 02:26:12;;;;;;;;;;;13.40;98.70;;;;;;5082422;28;19935;-83
2022/10/02 02:28:41;;;;;;;;;;;13.40;98.70;;;;;;5085144;28;19932;-83
2022/10/02 02:31:11;;;;;;;;;;;13.40;98.70;;;;;;5070192;28;20295;-83
2022/10/02 02:33:39;;;;;;;;;;;13.40;98.70;;;;;;5079170;28;20709;-82
2022/10/02 02:36:07;;;;;;;;;;;13.40;98.60;;;;;;5081278;28;19928;-83
2022/10/02 02:38:36;;;;;;;;;;;13.40;98.60;;;;;;5075492;28;20367;-83
2022/10/02 02:41:05;;;;;;;;;;;13.40;98.70;;;;;;5074900;28;20617;-83
2022/10/02 02:43:32;;;;;;;;;;;13.40;98.80;;;;;;5074254;28;19928;-83
2022/10/02 02:46:01;;;;;;;;;;;13.40;99.10;;;;;;5076506;28;19936;-82
2022/10/02 02:48:31;;;;;;;;;;;13.40;98.70;;;;;;5077390;28;20415;-83
2022/10/02 02:50:59;;;;;;;;;;;13.40;98.70;;;;;;5072322;28;20486;-80
2022/10/02 02:53:27;;;;;;;;;;;13.40;98.70;;;;;;5079194;28;19942;-81
2022/10/02 02:55:55;;;;;;;;;;;13.40;98.70;;;;;;5083365;28;19928;-81
2022/10/02 02:58:24;;;;;;;;;;;13.40;98.70;;;;;;5075187;28;19929;-81
2022/10/02 03:00:51;;;;;;;;;;;13.40;98.70;;;;;;5077552;28;19928;-81
2022/10/02 03:03:18;;;;;;;;;;;13.40;98.70;;;;;;5084631;28;19928;-80
2022/10/02 03:05:48;;;;;;;;;;;13.40;98.60;;;;;;5076107;28;19935;-81
2022/10/02 03:08:17;;;;;;;;;;;13.40;98.60;;;;;;5076509;28;19928;-81
2022/10/02 03:10:50;;;;;;;;;;;13.40;98.60;;;;;;5086007;28;19928;-81
2022/10/02 03:13:24;;;;;;;;;;;13.40;98.60;;;;;;5086732;28;19935;-80
2022/10/02 03:15:55;;;;;;;;;;;13.40;98.70;;;;;;5085762;28;20786;-80
2022/10/02 03:18:28;;;;;;;;;;;13.40;98.70;;;;;;5087618;28;19927;-80
2022/10/02 03:21:01;;;;;;;;;;;13.40;98.70;;;;;;5081821;28;19991;-82
2022/10/02 03:23:31;;;;;;;;;;;13.40;98.80;;;;;;5085468;28;19949;-81
2022/10/02 03:26:00;;;;;;;;;;;13.30;98.80;;;;;;5087155;28;19954;-81
2022/10/02 03:28:30;;;;;;;;;;;13.40;98.80;;;;;;5082714;28;20492;-81
2022/10/02 03:30:58;;;;;;;;;;;13.40;98.80;;;;;;5079055;28;19957;-80
2022/10/02 03:33:25;;;;;;;;;;;13.40;98.80;;;;;;5084304;28;20473;-81
2022/10/02 03:35:52;;;;;;;;;;;13.40;98.70;;;;;;5085890;28;19996;-81
2022/10/02 03:38:20;;;;;;;;;;;13.40;98.70;;;;;;5084994;28;20285;-81
2022/10/02 03:40:47;;;;;;;;;;;13.40;98.60;;;;;;5079977;28;19931;-81
2022/10/02 03:43:17;;;;;;;;;;;13.40;98.60;;;;;;5082724;28;19951;-80
2022/10/02 03:45:44;;;;;;;;;;;13.40;98.60;;;;;;5078840;28;19935;-81
2022/10/02 03:48:10;;;;;;;;;;;13.40;98.60;;;;;;5076245;28;20391;-81
2022/10/02 03:50:37;;;;;;;;;;;13.40;98.60;;;;;;5077258;28;19928;-80
2022/10/02 03:53:06;;;;;;;;;;;13.40;98.60;;;;;;5078466;28;20315;-80
2022/10/02 03:55:37;;;;;;;;;;;13.40;98.70;;;;;;5077899;28;19928;-80
2022/10/02 03:58:16;;;;;;;;;;;13.40;98.70;;;;;;5078628;28;19939;-80
2022/10/02 04:00:46;;;;;;;;;;;13.40;98.70;;;;;;5079412;28;19932;-80
2022/10/02 04:03:15;;;;;;;;;;;13.40;98.70;;;;;;5079906;28;19928;-80
2022/10/02 04:05:44;;;;;;;;;;;13.40;98.70;;;;;;5074912;28;20858;-81
2022/10/02 04:08:14;;;;;;;;;;;13.40;98.80;;;;;;5076521;28;21179;-80
2022/10/02 04:10:44;;;;;;;;;;;13.40;98.70;;;;;;5079692;28;20031;-80
2022/10/02 04:13:14;;;;;;;;;;;13.40;98.70;;;;;;5077124;28;19967;-82
2022/10/02 04:15:49;;;;;;;;;;;13.40;98.70;;;;;;5078355;28;19939;-80
2022/10/02 04:18:17;;;;;;;;;;;13.40;98.70;;;;;;5078606;28;20385;-81
2022/10/02 04:20:47;;;;;;;;;;;13.40;98.70;;;;;;5079942;28;19932;-82
2022/10/02 04:23:15;;;;;;;;;;;13.40;98.70;;;;;;5078938;28;20435;-82
2022/10/02 04:25:46;;;;;;;;;;;13.40;98.70;;;;;;5080307;28;19928;-82
2022/10/02 04:28:14;;;;;;;;;;;13.40;98.80;;;;;;5081277;28;20394;-81
2022/10/02 04:30:41;;;;;;;;;;;13.40;98.80;;;;;;5081919;28;19928;-81
2022/10/02 04:33:10;;;;;;;;;;;13.40;98.90;;;;;;5085687;28;19928;-82
2022/10/02 04:35:40;;;;;;;;;;;13.40;99.00;;;;;;5085391;28;19932;-82
2022/10/02 04:38:26;;;;;;;;;;;13.40;99.00;;;;;;5083165;28;20316;-81
2022/10/02 04:41:09;;;;;;;;;;;13.40;99.00;;;;;;5078629;28;20339;-81
2022/10/02 04:43:41;;;;;;;;;;;13.40;99.10;;;;;;5075607;28;19927;-81
2022/10/02 04:46:18;;;;;;;;;;;13.40;99.00;;;;;;5077689;28;19935;-81
2022/10/02 04:48:54;;;;;;;;;;;13.40;99.00;;;;;;5082769;28;19928;-82
2022/10/02 04:51:26;;;;;;;;;;;13.40;99.00;;;;;;5083676;28;19940;-82
2022/10/02 04:54:08;;;;;;;;;;;13.40;98.90;;;;;;5085685;28;20057;-82
2022/10/02 04:56:48;;;;;;;;;;;13.40;98.90;;;;;;5081092;28;19928;-83
2022/10/02 04:59:22;;;;;;;;;;;13.40;99.00;;;;;;5082754;28;19932;-82
2022/10/02 05:01:56;;;;;;;;;;;13.40;99.10;;;;;;5079789;28;20388;-82
2022/10/02 05:04:40;;;;;;;;;;;13.40;99.20;;;;;;5082532;28;19939;-83
2022/10/02 05:07:19;;;;;;;;;;;13.40;99.20;;;;;;5080312;28;19935;-83
2022/10/02 05:09:55;;;;;;;;;;;13.40;99.20;;;;;;5074332;28;19935;-83
2022/10/02 05:12:37;;;;;;;;;;;13.40;99.20;;;;;;5074899;28;19928;-79
2022/10/02 05:15:20;;;;;;;;;;;13.40;99.20;;;;;;5075299;28;19928;-77
2022/10/02 05:17:57;;;;;;;;;;;13.40;99.20;;;;;;5079805;28;20543;-76
2022/10/02 05:20:46;;;;;;;;;;;13.40;99.30;;;;;;5081461;28;19935;-77
2022/10/02 05:23:19;;;;;;;;;;;13.40;99.30;;;;;;5080962;28;19939;-78
2022/10/02 05:25:53;;;;;;;;;;;13.40;99.30;;;;;;5080056;28;19939;-78
2022/10/02 05:28:38;;;;;;;;;;;13.40;99.30;;;;;;5081874;28;19928;-77
2022/10/02 05:31:11;;;;;;;;;;;13.30;99.30;;;;;;5074931;28;19991;-78
2022/10/02 05:33:44;;;;;;;;;;;13.40;99.30;;;;;;5080756;28;19928;-82
2022/10/02 05:36:20;;;;;;;;;;;13.40;99.30;;;;;;5079836;28;20324;-81
2022/10/02 05:38:57;;;;;;;;;;;13.30;99.30;;;;;;5078984;28;19939;-83
2022/10/02 05:41:28;;;;;;;;;;;13.40;99.40;;;;;;5077430;28;19935;-81
2022/10/02 05:43:57;;;;;;;;;;;13.40;99.40;;;;;;5075752;28;19936;-83
2022/10/02 05:46:25;;;;;;;;;;;13.40;99.50;;;;;;5080542;28;19928;-81
2022/10/02 05:48:57;;;;;;;;;;;13.40;99.60;;;;;;5082203;28;19932;-84
2022/10/02 05:51:29;;;;;;;;;;;13.40;99.70;;;;;;5079736;28;19935;-84
2022/10/02 05:53:59;;;;;;;;;;;13.40;99.70;;;;;;5078406;28;19928;-82
2022/10/02 05:56:30;;;;;;;;;;;13.40;99.80;;;;;;5078097;28;19935;-83
2022/10/02 05:58:58;;;;;;;;;;;13.30;99.70;;;;;;5082389;28;19935;-83
2022/10/02 06:01:28;;;;;;;;;;;13.40;99.80;;;;;;5078915;28;19931;-82
2022/10/02 06:03:57;;;;;;;;;;;13.30;99.80;;;;;;5081611;28;19938;-83
2022/10/02 06:06:25;;;;;;;;;;;13.30;99.70;;;;;;5080881;28;19929;-82
2022/10/02 06:08:57;;;;;;;;;;;13.40;99.80;;;;;;5076448;28;19927;-85
2022/10/02 06:11:26;;;;;;;;;;;13.30;99.80;;;;;;5077246;28;19928;-82
2022/10/02 06:13:57;;;;;;;;;;;13.30;99.80;;;;;;5067833;28;19928;-84
2022/10/02 06:16:27;;;;;;;;;;;13.30;99.70;;;;;;5069416;28;19928;-82
2022/10/02 06:18:56;;;;;;;;;;;13.30;99.70;;;;;;5072552;28;19934;-83
2022/10/02 06:21:27;;;;;;;;;;;13.30;99.80;;;;;;5081271;28;19928;-83
2022/10/02 06:23:56;;;;;;;;;;;13.30;99.70;;;;;;5082171;28;19932;-81
2022/10/02 06:26:25;;;;;;;;;;;13.30;99.70;;;;;;5084448;28;19932;-84
2022/10/02 06:28:53;;;;;;;;;;;13.30;99.70;;;;;;5085966;28;20379;-82
2022/10/02 06:31:23;;;;;;;;;;;13.30;99.60;;;;;;5088318;28;20018;-83
2022/10/02 06:33:51;;;;;;;;;;;13.30;99.60;;;;;;5084552;28;19971;-82
2022/10/02 06:36:44;;;;;;;;;;;13.30;99.60;;;;;;5079660;28;19928;-82
2022/10/02 06:39:17;;;;;;;;;;;13.30;99.60;;;;;;5078958;28;19932;-84
2022/10/02 06:41:47;;;;;;;;;;;13.30;99.60;;;;;;5077047;28;19928;-81
2022/10/02 06:44:16;;;;;;;;;;;13.30;99.60;;;;;;5075407;28;19928;-83
2022/10/02 06:46:51;;;;;;;;;;;13.30;99.60;;;;;;5083834;28;20759;-83
2022/10/02 06:49:21;;;;;;;;;;;13.30;99.60;;;;;;5082773;28;19928;-83
2022/10/02 06:51:58;;;;;;;;;;;13.30;99.70;;;;;;5082574;28;19928;-85
2022/10/02 06:54:36;;;;;;;;;;;13.30;99.60;;;;;;5081463;28;19928;-83
2022/10/02 06:57:10;;;;;;;;;;;13.30;99.60;;;;;;5079837;28;19928;-87
2022/10/02 06:59:47;;;;;;;;;;;13.30;99.60;;;;;;5083363;28;19928;-82
2022/10/02 07:02:22;;;;;;;;;;;13.20;99.60;;;;;;5077551;28;19932;-82
2022/10/02 07:04:55;;;;;;;;;;;13.30;99.60;;;;;;5080933;28;19928;-81
2022/10/02 07:07:29;;;;;;;;;;;13.30;99.60;;;;;;5076583;28;19939;-82
2022/10/02 07:10:24;;;;;;;;;;;13.30;99.50;;;;;;5077955;28;19941;-83
2022/10/02 07:13:02;;;;;;;;;;;13.30;99.50;;;;;;5025695;28;19936;-82
2022/10/02 07:15:56;;;;;;;;;;;13.30;99.80;;;;;;5076318;28;19928;-81
2022/10/02 07:18:31;;;;;;;;;;;13.30;99.90;;;;;;5051289;28;19928;-82
2022/10/02 07:21:03;;;;;;;;;;;13.30;99.90;;;;;;5076055;28;19924;-84
2022/10/02 07:23:39;;;;;;;;;;;13.30;99.90;;;;;;5084327;28;19928;-82
2022/10/02 07:26:11;;;;;;;;;;;13.30;99.90;;;;;;5078366;28;20677;-82
2022/10/02 07:28:41;;;;;;;;;;;13.30;99.90;;;;;;5078171;28;19934;-82
2022/10/02 07:31:14;;;;;;;;;;;13.30;99.90;;;;;;5074563;28;19999;-82
2022/10/02 07:33:47;;;;;;;;;;;13.30;99.90;;;;;;5077732;28;19939;-82
2022/10/02 07:36:17;;;;;;;;;;;13.30;99.90;;;;;;5080072;28;19932;-82
2022/10/02 07:38:55;;;;;;;;;;;13.30;99.90;;;;;;5076364;28;19950;-83
2022/10/02 07:41:33;;;;;;;;;;;13.30;99.90;;;;;;5080019;28;20100;-82
2022/10/02 07:44:05;;;;;;;;;;;13.30;99.90;;;;;;5077577;28;19939;-81
2022/10/02 07:46:38;;;;;;;;;;;13.30;99.90;;;;;;5070948;28;20745;-82
2022/10/02 07:49:15;;;;;;;;;;;13.30;99.90;;;;;;5077162;28;19932;-82
2022/10/02 07:51:48;;;;;;;;;;;13.30;99.90;;;;;;5074738;28;19935;-81
2022/10/02 07:54:26;;;;;;;;;;;13.30;99.90;;;;;;5078620;28;20478;-83
2022/10/02 07:56:56;;;;;;;;;;;13.20;99.80;;;;;;5077255;28;20383;-84
2022/10/02 07:59:23;;;;;;;;;;;13.30;99.80;;;;;;5076352;28;19932;-82
2022/10/02 08:01:50;;;;;;;;;;;13.30;99.80;;;;;;5080589;28;19934;-82
2022/10/02 08:04:18;;;;;;;;;;;13.30;99.80;;;;;;5076803;28;19929;-88
2022/10/02 08:06:45;;;;;;;;;;;13.30;99.70;;;;;;5083657;28;20741;-82
2022/10/02 08:09:15;;;;;;;;;;;13.30;99.70;;;;;;5083548;28;19939;-81
2022/10/02 08:11:45;;;;;;;;;;;13.30;99.70;;;;;;5076783;28;19935;-81
2022/10/02 08:14:14;;;;;;;;;;;13.30;99.70;;;;;;5080957;28;19932;-82
2022/10/02 08:16:46;;;;;;;;;;;13.30;99.70;;;;;;5078849;28;19932;-83
2022/10/02 08:19:15;;;;;;;;;;;13.30;99.70;;;;;;5078999;28;19929;-83
2022/10/02 08:21:45;;;;;;;;;;;13.30;99.80;;;;;;5076657;28;20356;-83
2022/10/02 08:24:13;;;;;;;;;;;13.30;99.80;;;;;;5077319;28;20475;-83
2022/10/02 08:26:45;;;;;;;;;;;13.30;99.70;;;;;;5077638;28;19936;-82
2022/10/02 08:29:16;;;;;;;;;;;13.30;99.70;;;;;;5076726;28;20003;-78
2022/10/02 08:31:43;;;;;;;;;;;13.30;99.70;;;;;;5082664;28;20630;-77
2022/10/02 08:34:13;;;;;;;;;;;13.30;99.70;;;;;;5084848;28;19928;-78
2022/10/02 08:36:58;;;;;;;;;;;13.30;99.70;;;;;;5080753;28;19929;-77
2022/10/02 08:39:43;;;;;;;;;;;13.30;99.60;;;;;;5079229;28;20343;-76
2022/10/02 08:42:23;;;;;;;;;;;13.30;99.60;;;;;;5078425;28;20475;-77
2022/10/02 08:45:08;;;;;;;;;;;13.30;99.50;;;;;;5079992;28;20705;-77
2022/10/02 08:47:55;;;;;;;;;;;13.30;99.50;;;;;;5064900;28;19935;-77
2022/10/02 08:50:31;;;;;;;;;;;13.30;99.50;;;;;;5062783;28;19939;-77
2022/10/02 08:53:22;;;;;;;;;;;13.30;99.60;;;;;;5084102;28;20658;-77
2022/10/02 08:56:03;;;;;;;;;;;13.30;99.50;;;;;;5084598;28;19928;-78
2022/10/02 08:58:44;;;;;;;;;;;13.30;99.60;;;;;;5078734;28;20375;-77
2022/10/02 09:01:22;;;;;;;;;;;13.30;99.60;;;;;;5085735;28;19928;-77
2022/10/02 09:04:02;;;;;;;;;;;13.30;99.50;;;;;;5085989;28;19928;-78
2022/10/02 09:06:59;;;;;;;;;;;13.30;99.60;;;;;;5082860;28;19934;-79
2022/10/02 09:09:45;;;;;;;;;;;13.30;99.60;;;;;;5027564;28;20472;-77
2022/10/02 09:12:26;;;;;;;;;;;13.30;99.60;;;;;;5074164;28;19928;-78
2022/10/02 09:14:54;;;;;;;;;;;13.30;99.60;;;;;;5087231;28;19928;-79
2022/10/02 09:17:48;;;;;;;;;;;13.40;99.60;;;;;;5084402;28;19928;-77
2022/10/02 09:20:33;;;;;;;;;;;13.30;99.60;;;;;;5082883;28;19928;-79
2022/10/02 09:23:18;;;;;;;;;;;13.40;99.60;;;;;;5084453;28;19928;-78
2022/10/02 09:25:52;;;;;;;;;;;13.40;99.60;;;;;;5085390;28;19928;-79
2022/10/02 09:28:31;;;;;;;;;;;13.40;99.60;;;;;;5080742;28;19935;-78
2022/10/02 09:31:08;;;;;;;;;;;13.30;99.80;;;;;;5086078;28;19928;-77
2022/10/02 09:33:45;;;;;;;;;;;13.30;99.40;;;;;;5082546;28;20027;-78
2022/10/02 09:36:23;;;;;;;;;;;13.40;99.40;;;;;;5083523;28;19940;-78
2022/10/02 09:39:08;;;;;;;;;;;13.40;99.40;;;;;;5085877;28;19928;-78
2022/10/02 09:41:47;;;;;;;;;;;13.40;99.40;;;;;;5081927;28;20580;-78
2022/10/02 09:44:46;;;;;;;;;;;13.40;99.30;;;;;;5085444;28;19927;-78
2022/10/02 09:47:28;;;;;;;;;;;13.40;99.30;;;;;;5081861;28;20478;-76
2022/10/02 09:50:11;;;;;;;;;;;13.40;99.30;;;;;;5080370;28;19928;-76
2022/10/02 09:52:51;;;;;;;;;;;13.50;99.30;;;;;;5083163;28;19957;-77
2022/10/02 09:55:48;;;;;;;;;;;13.40;99.30;;;;;;5084597;28;19928;-77
2022/10/02 09:58:31;;;;;;;;;;;13.40;99.30;;;;;;5022471;28;20259;-77
2022/10/02 10:01:16;;;;;;;;;;;13.40;99.30;;;;;;5076845;28;19928;-77
2022/10/02 10:04:07;;;;;;;;;;;13.40;99.40;;;;;;5085188;28;20720;-77
2022/10/02 10:06:51;;;;;;;;;;;13.40;99.30;;;;;;5051138;28;20677;-77
2022/10/02 10:09:33;;;;;;;;;;;13.40;99.30;;;;;;5069079;28;19928;-78
2022/10/02 10:12:18;;;;;;;;;;;13.40;99.30;;;;;;5083242;28;19975;-79
2022/10/02 10:15:14;;;;;;;;;;;13.40;99.30;;;;;;5044014;28;19928;-78
2022/10/02 10:17:59;;;;;;;;;;;13.40;99.30;;;;;;5085105;28;19982;-77
2022/10/02 10:20:53;;;;;;;;;;;13.50;99.30;;;;;;5079239;28;19924;-75
2022/10/02 10:23:44;;;;;;;;;;;13.40;99.20;;;;;;5084782;28;19985;-77
2022/10/02 10:26:33;;;;;;;;;;;13.40;99.20;;;;;;5060902;28;19928;-79
2022/10/02 10:29:20;;;;;;;;;;;13.40;99.20;;;;;;5085022;28;20696;-76
2022/10/02 10:32:05;;;;;;;;;;;13.40;99.10;;;;;;5082977;28;19989;-78
2022/10/02 10:34:44;;;;;;;;;;;13.40;99.10;;;;;;5085316;28;19935;-78
2022/10/02 10:40:19;;;;;;;;;;;13.50;99.10;;;;;;5083244;28;20307;-76
2022/10/02 10:43:02;;;;;;;;;;;13.50;99.00;;;;;;5077046;28;19935;-78
2022/10/02 10:45:36;;;;;;;;;;;13.50;99.00;;;;;;5080667;28;20962;-78
2022/10/02 10:48:20;;;;;;;;;;;13.50;99.00;;;;;;5083938;28;20852;-76
2022/10/02 10:50:54;;;;;;;;;;;13.50;99.10;;;;;;5063834;28;19935;-77
2022/10/02 10:53:36;;;;;;;;;;;13.50;99.10;;;;;;5086158;28;19935;-77
2022/10/02 10:56:18;;;;;;;;;;;13.50;99.00;;;;;;5080753;28;19936;-75
2022/10/02 10:58:52;;;;;;;;;;;13.50;99.00;;;;;;5078332;28;20184;-79
2022/10/02 11:01:20;;;;;;;;;;;13.50;99.00;;;;;;5077110;28;19927;-79
2022/10/02 11:04:05;;;;;;;;;;;13.50;99.00;;;;;;5084891;28;19939;-78
2022/10/02 11:06:41;;;;;;;;;;;13.50;99.00;;;;;;5081333;28;19928;-77
2022/10/02 11:09:13;;;;;;;;;;;13.50;99.00;;;;;;5087337;28;19935;-78
2022/10/02 11:11:47;;;;;;;;;;;13.50;99.00;;;;;;5084686;28;19932;-78
2022/10/02 11:14:22;;;;;;;;;;;13.60;99.00;;;;;;5077140;28;20386;-78
2022/10/02 11:17:12;;;;;;;;;;;13.50;99.00;;;;;;5084136;28;19939;-78
2022/10/02 11:19:44;;;;;;;;;;;13.50;98.90;;;;;;5084951;28;19928;-76
2022/10/02 11:22:23;;;;;;;;;;;13.50;98.90;;;;;;5081790;28;20003;-79
2022/10/02 11:24:59;;;;;;;;;;;13.50;98.90;;;;;;5084847;28;20472;-77
2022/10/02 11:27:35;;;;;;;;;;;13.50;98.80;;;;;;5085747;28;19924;-77
2022/10/02 11:30:11;;;;;;;;;;;13.50;98.80;;;;;;5085160;28;20598;-77
2022/10/02 11:32:55;;;;;;;;;;;13.60;98.80;;;;;;5084974;28;19932;-79
2022/10/02 11:35:24;;;;;;;;;;;13.60;98.90;;;;;;5076531;28;19936;-79
2022/10/02 11:38:09;;;;;;;;;;;13.60;99.00;;;;;;5082545;28;19998;-80
2022/10/02 11:40:43;;;;;;;;;;;13.60;99.00;;;;;;5084674;28;19928;-79
2022/10/02 11:43:24;;;;;;;;;;;13.60;99.00;;;;;;5076719;28;20031;-78
2022/10/02 11:46:10;;;;;;;;;;;13.60;98.90;;;;;;5084469;28;19935;-79
2022/10/02 11:48:48;;;;;;;;;;;13.60;99.00;;;;;;5080800;28;19940;-78
2022/10/02 11:51:24;;;;;;;;;;;13.60;99.00;;;;;;5080612;28;19935;-78
2022/10/02 11:54:14;;;;;;;;;;;13.70;99.00;;;;;;5085865;28;20659;-77
2022/10/02 11:56:52;;;;;;;;;;;13.70;98.90;;;;;;5080983;28;20318;-79
2022/10/02 11:59:29;;;;;;;;;;;13.70;98.90;;;;;;5084643;28;19963;-79
2022/10/02 12:02:01;;;;;;;;;;;13.70;98.90;;;;;;5083786;28;20383;-77
2022/10/02 12:04:40;;;;;;;;;;;13.70;98.90;;;;;;5085234;28;19928;-78
2022/10/02 12:07:21;;;;;;;;;;;13.70;98.90;;;;;;5081324;28;20105;-80
2022/10/02 12:10:01;;;;;;;;;;;13.80;99.00;;;;;;5087051;28;19954;-77
2022/10/02 12:12:36;;;;;;;;;;;13.80;98.90;;;;;;5081599;28;19934;-80
2022/10/02 12:15:09;;;;;;;;;;;13.80;98.90;;;;;;5084746;28;19932;-78
2022/10/02 12:17:52;;;;;;;;;;;13.80;98.80;;;;;;5084953;28;20295;-79
2022/10/02 12:28:54;;;;;;;;;;;13.90;98.70;;;;;;5083750;28;20028;-79
2022/10/02 12:31:26;;;;;;;;;;;13.90;98.70;;;;;;5085810;28;19928;-78
2022/10/02 12:34:00;;;;;;;;;;;13.90;98.70;;;;;;5085901;28;19928;-80
2022/10/02 12:36:42;;;;;;;;;;;13.90;98.70;;;;;;5083664;28;19975;-78
2022/10/02 12:39:20;;;;;;;;;;;13.90;98.60;;;;;;5085782;28;19928;-78
2022/10/02 12:41:58;;;;;;;;;;;13.90;98.60;;;;;;5080734;28;19960;-78
2022/10/02 12:44:33;;;;;;;;;;;13.90;98.60;;;;;;5082839;28;19939;-78
2022/10/02 12:47:11;;;;;;;;;;;14.00;98.60;;;;;;5084325;28;20488;-77
2022/10/02 12:49:46;;;;;;;;;;;14.00;98.60;;;;;;5087101;28;19932;-77
2022/10/02 12:52:31;;;;;;;;;;;14.00;98.60;;;;;;5084425;28;19928;-77
2022/10/02 12:55:12;;;;;;;;;;;14.00;98.60;;;;;;5088841;28;19928;-79
2022/10/02 12:57:54;;;;;;;;;;;14.00;98.70;;;;;;5084270;28;20400;-79
2022/10/02 13:00:23;;;;;;;;;;;14.00;98.70;;;;;;5085246;28;19924;-80
2022/10/02 13:03:10;;;;;;;;;;;14.00;98.60;;;;;;5087327;28;19928;-79
2022/10/02 13:05:51;;;;;;;;;;;14.00;98.60;;;;;;5087091;28;20307;-78
2022/10/02 13:08:36;;;;;;;;;;;14.00;98.60;;;;;;5082570;28;19934;-77
2022/10/02 13:11:09;;;;;;;;;;;14.00;98.50;;;;;;5087199;28;20769;-76
2022/10/02 13:13:48;;;;;;;;;;;14.10;98.60;;;;;;5085636;28;19935;-78
2022/10/02 13:16:20;;;;;;;;;;;14.10;98.50;;;;;;5081371;28;19943;-77
2022/10/02 13:18:51;;;;;;;;;;;14.10;98.50;;;;;;5088584;28;20450;-78
2022/10/02 13:21:24;;;;;;;;;;;14.10;98.50;;;;;;5085386;28;19935;-78
2022/10/02 13:23:55;;;;;;;;;;;14.10;98.40;;;;;;5088411;28;19985;-76
2022/10/02 13:26:28;;;;;;;;;;;14.10;98.40;;;;;;5085384;28;20862;-79
2022/10/02 13:29:09;;;;;;;;;;;14.10;98.40;;;;;;5085213;28;20167;-79
2022/10/02 13:31:46;;;;;;;;;;;14.10;98.40;;;;;;5084472;28;19934;-78
2022/10/02 13:34:21;;;;;;;;;;;14.10;98.30;;;;;;5086819;28;19928;-77
2022/10/02 13:36:56;;;;;;;;;;;14.20;98.40;;;;;;5084443;28;20014;-76
2022/10/02 13:39:31;;;;;;;;;;;14.10;98.40;;;;;;5088079;28;19928;-77
2022/10/02 13:42:07;;;;;;;;;;;14.20;98.50;;;;;;5083300;28;19929;-79
2022/10/02 13:44:39;;;;;;;;;;;14.20;98.60;;;;;;5086494;28;20026;-78
2022/10/02 13:47:14;;;;;;;;;;;14.20;98.60;;;;;;5087755;28;19939;-77
2022/10/02 13:49:50;;;;;;;;;;;14.20;98.60;;;;;;5080399;28;19929;-76
2022/10/02 13:52:21;;;;;;;;;;;14.10;98.50;;;;;;5083214;28;19928;-78
2022/10/02 13:54:56;;;;;;;;;;;14.20;98.50;;;;;;5087343;28;19932;-78
2022/10/02 13:57:33;;;;;;;;;;;14.20;98.50;;;;;;5082548;28;20491;-76
2022/10/02 14:00:03;;;;;;;;;;;14.20;98.50;;;;;;5086229;28;19928;-78
2022/10/02 14:02:40;;;;;;;;;;;14.20;98.50;;;;;;5084522;28;20750;-77
2022/10/02 14:05:11;;;;;;;;;;;14.20;98.50;;;;;;5087345;28;19954;-78
2022/10/02 14:07:47;;;;;;;;;;;14.20;98.50;;;;;;5083847;28;20291;-76
2022/10/02 14:10:19;;;;;;;;;;;14.20;98.50;;;;;;5084610;28;19932;-76
2022/10/02 14:12:52;;;;;;;;;;;14.20;98.50;;;;;;5086421;28;20485;-77
2022/10/02 14:15:22;;;;;;;;;;;14.10;98.50;;;;;;5086384;28;19935;-78
2022/10/02 14:17:58;;;;;;;;;;;14.20;98.50;;;;;;5086249;28;19924;-78
2022/10/02 14:20:29;;;;;;;;;;;14.20;98.50;;;;;;5081389;28;20426;-76
2022/10/02 14:23:07;;;;;;;;;;;14.20;98.40;;;;;;5085765;28;20411;-76
2022/10/02 14:25:42;;;;;;;;;;;14.20;98.40;;;;;;5087459;28;19928;-78
2022/10/02 14:28:15;;;;;;;;;;;14.20;98.30;;;;;;5084474;28;19931;-78
2022/10/02 14:30:53;;;;;;;;;;;14.20;98.30;;;;;;5087155;28;19927;-77
2022/10/02 14:33:28;;;;;;;;;;;14.20;98.40;;;;;;5086170;28;19928;-78
2022/10/02 14:35:57;;;;;;;;;;;14.20;98.50;;;;;;5086039;28;19928;-77
2022/10/02 14:38:38;;;;;;;;;;;14.20;98.60;;;;;;5087912;28;19928;-77
2022/10/02 14:41:32;;;;;;;;;;;14.20;98.60;;;;;;5085453;28;20576;-77
2022/10/02 14:44:06;;;;;;;;;;;14.20;98.50;;;;;;5059480;28;19932;-78
2022/10/02 14:46:41;;;;;;;;;;;14.20;98.50;;;;;;5085348;28;20371;-76
2022/10/02 14:49:17;;;;;;;;;;;14.20;98.40;;;;;;5085002;28;20054;-79
2022/10/02 14:51:56;;;;;;;;;;;14.20;98.40;;;;;;5084046;28;19928;-76
2022/10/02 14:54:28;;;;;;;;;;;14.20;98.40;;;;;;5086963;28;19935;-77
2022/10/02 14:57:01;;;;;;;;;;;14.30;98.40;;;;;;5080494;28;19929;-78
2022/10/02 14:59:39;;;;;;;;;;;14.20;98.40;;;;;;5087891;28;19981;-77
2022/10/02 15:02:14;;;;;;;;;;;14.30;98.30;;;;;;5082798;28;21149;-77
2022/10/02 15:04:46;;;;;;;;;;;14.20;98.30;;;;;;5086366;28;20435;-77
2022/10/02 15:07:13;;;;;;;;;;;14.20;98.30;;;;;;5085315;28;19935;-79
2022/10/02 15:09:47;;;;;;;;;;;14.20;98.30;;;;;;5086719;28;19928;-77